Portada
METAR-TAF:

METAR-TAF

Aeroports :

Rantoul National Aviation Center Airport (Frank Elliott Field)

Rantoul, Illinois, Estats Units d'Amèrica

latitud: 40-17-37N, longitud: 088-08-33W, altitud: 225 m

Observació

L'informe es va fer fa 42 minuts, a les 07:35 UTC
Vent 14 kt del Oest amb ràfegues de 21 kt
Temperatura 22°C
Humitat 100%
Pressió 1009 hPa
Visibilitat: 8.0 km
Cel ennuvolat a una alçada de 3800 ft
Cel ennuvolat a una alçada de 4500 ft
Cel cobert a una alçada de 6000 ft

METAR: KTIP 230735Z AUTO 28014G21KT 5SM /VCTSRA BKN038 BKN045 OVC060 22/22 A2979 RMK AO2 LTG DSNT ALQS T02230217

Hora: 03:17 (08:17 UTC)


TAF: manca

Observacions i pronòstics meteorològics de més de 4000 aeroports (METAR i TAF).

Les estacions disponibles són els punts grocs i vermells al mapa.

Posi el ratolí al punt desitjat per veure el nom de l'estació.

Feu clic per veure les observacions i els pronòstics meteorològics.

Per canviar el mapa: feu clic els botons verds amb una creu de color negre per apropar; al botó verd amb un guió per allunyar la imatge; o en les fletxes verdes per a mapes adjacents.


METAR-TAF: